Time;durP1;ratioP1;P1;durP2;ratioP2;P2;SDS_P1;SDS_P2;PMS_P1;PMS_P2;Temp;Humidity;BMP_temperature;BMP_pressure;BME280_temperature;BME280_humidity;BME280_pressure;Samples;Min_cycle;Max_cycle;Signal;HPM_P1;HPM_P2
2023/12/12 00:01:25;;;;;;;17.40;3.85;;;;;;;;;;5049763;28;20041;-66
2023/12/12 00:03:50;;;;;;;21.05;3.83;;;;;;;;;;5049913;28;20423;-67
2023/12/12 00:06:16;;;;;;;23.00;5.22;;;;;;;;;;5048623;28;20033;-66
2023/12/12 00:08:41;;;;;;;26.70;4.70;;;;;;;;;;5048867;28;20040;-67
2023/12/12 00:11:07;;;;;;;21.65;4.47;;;;;;;;;;5049676;28;20045;-67
2023/12/12 00:13:32;;;;;;;14.32;4.50;;;;;;;;;;5049978;28;20032;-67
2023/12/12 00:15:57;;;;;;;21.30;5.25;;;;;;;;;;5049908;28;20049;-68
2023/12/12 00:18:23;;;;;;;20.08;4.63;;;;;;;;;;5053630;28;20374;-66
2023/12/12 00:20:48;;;;;;;20.98;5.05;;;;;;;;;;5052438;28;20029;-68
2023/12/12 00:23:13;;;;;;;15.93;4.57;;;;;;;;;;5053314;28;20542;-67
2023/12/12 00:25:39;;;;;;;16.23;4.70;;;;;;;;;;5053669;28;20080;-68
2023/12/12 00:28:04;;;;;;;13.68;4.30;;;;;;;;;;5050339;28;20052;-67
2023/12/12 00:30:30;;;;;;;26.88;4.40;;;;;;;;;;5053162;28;20053;-67
2023/12/12 00:32:55;;;;;;;25.13;4.28;;;;;;;;;;5049024;28;20051;-68
2023/12/12 00:35:20;;;;;;;19.13;3.65;;;;;;;;;;5053598;28;20487;-66
2023/12/12 00:37:45;;;;;;;16.63;3.13;;;;;;;;;;5043634;28;20840;-67
2023/12/12 00:40:11;;;;;;;16.40;4.10;;;;;;;;;;5053539;28;20500;-68
2023/12/12 00:42:36;;;;;;;22.27;4.10;;;;;;;;;;5051570;28;20473;-67
2023/12/12 00:45:02;;;;;;;24.70;4.32;;;;;;;;;;5050781;28;20061;-67
2023/12/12 00:47:28;;;;;;;15.07;3.28;;;;;;;;;;5050591;28;20056;-67
2023/12/12 00:49:53;;;;;;;20.70;3.40;;;;;;;;;;5052879;28;20032;-67
2023/12/12 00:52:19;;;;;;;20.52;3.50;;;;;;;;;;5050435;28;20520;-67
2023/12/12 00:54:44;;;;;;;19.60;3.45;;;;;;;;;;5049961;28;20041;-69
2023/12/12 00:57:10;;;;;;;15.98;3.42;;;;;;;;;;5050809;28;20037;-67
2023/12/12 00:59:35;;;;;;;16.88;2.90;;;;;;;;;;5052919;28;20110;-67
2023/12/12 01:02:00;;;;;;;13.35;3.28;;;;;;;;;;5050115;28;20041;-68
2023/12/12 01:04:26;;;;;;;23.98;4.00;;;;;;;;;;5048827;28;20119;-68
2023/12/12 01:06:51;;;;;;;12.02;2.50;;;;;;;;;;5050133;28;20503;-67
2023/12/12 01:09:16;;;;;;;19.33;3.03;;;;;;;;;;5050445;28;20443;-68
2023/12/12 01:11:42;;;;;;;16.88;2.92;;;;;;;;;;5050607;28;20036;-67
2023/12/12 01:14:07;;;;;;;13.45;2.53;;;;;;;;;;5053074;28;20040;-68
2023/12/12 01:16:32;;;;;;;9.90;2.60;;;;;;;;;;5052136;28;20040;-67
2023/12/12 01:18:58;;;;;;;7.35;1.80;;;;;;;;;;5052934;28;20544;-68
2023/12/12 01:21:23;;;;;;;12.07;2.38;;;;;;;;;;5051976;28;20029;-68
2023/12/12 01:23:52;;;;;;;9.07;1.90;;;;;;;;;;5052371;28;20052;-68
2023/12/12 01:26:22;;;;;;;14.18;1.40;;;;;;;;;;5051117;28;20040;-67
2023/12/12 01:28:48;;;;;;;6.68;1.10;;;;;;;;;;5050476;28;20079;-68
2023/12/12 01:31:14;;;;;;;6.38;1.10;;;;;;;;;;5050482;28;20469;-67
2023/12/12 01:33:40;;;;;;;6.38;1.40;;;;;;;;;;5051137;28;20473;-67
2023/12/12 01:36:05;;;;;;;10.55;1.67;;;;;;;;;;5051813;28;20039;-68
2023/12/12 01:38:31;;;;;;;5.75;1.00;;;;;;;;;;5051680;28;20037;-67
2023/12/12 01:40:57;;;;;;;6.63;1.20;;;;;;;;;;5052103;28;20579;-68
2023/12/12 01:43:26;;;;;;;2.95;0.93;;;;;;;;;;5051113;28;20566;-67
2023/12/12 01:45:54;;;;;;;7.43;1.17;;;;;;;;;;5040933;28;20511;-68
2023/12/12 01:48:20;;;;;;;8.27;1.23;;;;;;;;;;5049632;28;20033;-67
2023/12/12 01:50:45;;;;;;;6.18;1.38;;;;;;;;;;5051070;28;20037;-67
2023/12/12 01:53:11;;;;;;;6.40;1.15;;;;;;;;;;5049612;28;20025;-68
2023/12/12 01:55:37;;;;;;;6.97;1.20;;;;;;;;;;5050740;28;20111;-68
2023/12/12 01:58:02;;;;;;;5.45;1.17;;;;;;;;;;5051609;28;20554;-67
2023/12/12 02:00:28;;;;;;;9.90;1.85;;;;;;;;;;5050292;28;20096;-67
2023/12/12 02:02:53;;;;;;;8.52;1.67;;;;;;;;;;5049715;28;20040;-66
2023/12/12 02:05:19;;;;;;;9.75;1.75;;;;;;;;;;5051671;28;20725;-67
2023/12/12 02:07:46;;;;;;;10.10;1.80;;;;;;;;;;5051025;28;20024;-68
2023/12/12 02:10:11;;;;;;;11.43;1.40;;;;;;;;;;5050560;28;20033;-68
2023/12/12 02:12:36;;;;;;;13.18;1.60;;;;;;;;;;5048169;28;20052;-67
2023/12/12 02:15:02;;;;;;;13.25;1.67;;;;;;;;;;5050463;28;20041;-68
2023/12/12 02:17:28;;;;;;;7.45;1.50;;;;;;;;;;5051213;28;20039;-68
2023/12/12 02:19:53;;;;;;;11.60;1.90;;;;;;;;;;5049516;28;20033;-66
2023/12/12 02:22:19;;;;;;;7.95;1.63;;;;;;;;;;5050394;28;20040;-66
2023/12/12 02:24:44;;;;;;;14.60;2.30;;;;;;;;;;5051324;28;20029;-67
2023/12/12 02:27:10;;;;;;;12.40;2.15;;;;;;;;;;5047012;28;20124;-67
2023/12/12 02:29:35;;;;;;;15.88;2.70;;;;;;;;;;5048882;28;20088;-66
2023/12/12 02:32:00;;;;;;;19.50;2.92;;;;;;;;;;5048837;28;20048;-67
2023/12/12 02:34:26;;;;;;;13.55;2.38;;;;;;;;;;5051548;28;20626;-67
2023/12/12 02:36:51;;;;;;;19.55;2.75;;;;;;;;;;5050097;28;20033;-67
2023/12/12 02:39:16;;;;;;;14.35;2.65;;;;;;;;;;5051063;28;20041;-67
2023/12/12 02:41:42;;;;;;;13.77;2.30;;;;;;;;;;5050794;28;20086;-66
2023/12/12 02:44:07;;;;;;;14.40;2.53;;;;;;;;;;5050933;28;20484;-67
2023/12/12 02:46:32;;;;;;;10.60;2.00;;;;;;;;;;5050977;28;20416;-66
2023/12/12 02:48:58;;;;;;;17.63;2.22;;;;;;;;;;5050747;28;20041;-68
2023/12/12 02:51:23;;;;;;;22.10;2.45;;;;;;;;;;5050540;28;20469;-66
2023/12/12 02:53:48;;;;;;;9.55;1.80;;;;;;;;;;5048222;28;20487;-66
2023/12/12 02:56:13;;;;;;;13.02;2.17;;;;;;;;;;5050293;28;20059;-67
2023/12/12 02:58:39;;;;;;;13.15;2.15;;;;;;;;;;5049118;28;20034;-66
2023/12/12 03:01:04;;;;;;;12.05;1.63;;;;;;;;;;5050260;28;20029;-66
2023/12/12 03:03:29;;;;;;;12.20;1.40;;;;;;;;;;5049993;28;20215;-66
2023/12/12 03:05:55;;;;;;;11.13;1.60;;;;;;;;;;5050323;28;20415;-68
2023/12/12 03:08:20;;;;;;;12.20;1.80;;;;;;;;;;5050307;28;20468;-67
2023/12/12 03:10:46;;;;;;;7.00;1.50;;;;;;;;;;5050617;28;20033;-67
2023/12/12 03:13:12;;;;;;;10.02;1.10;;;;;;;;;;5048901;28;20039;-66
2023/12/12 03:15:37;;;;;;;5.90;1.10;;;;;;;;;;5050707;28;20459;-66
2023/12/12 03:18:03;;;;;;;7.28;1.27;;;;;;;;;;5044201;28;20476;-66
2023/12/12 03:20:28;;;;;;;17.25;1.20;;;;;;;;;;5047955;28;20032;-66
2023/12/12 03:22:54;;;;;;;27.42;1.90;;;;;;;;;;5047583;28;20541;-67
2023/12/12 03:25:19;;;;;;;53.03;2.20;;;;;;;;;;5049001;28;20530;-66
2023/12/12 03:27:45;;;;;;;77.20;3.42;;;;;;;;;;5049693;28;20464;-67
2023/12/12 03:30:11;;;;;;;106.63;3.60;;;;;;;;;;5041230;28;20112;-67
2023/12/12 03:32:36;;;;;;;11.70;2.40;;;;;;;;;;5048906;28;20515;-67
2023/12/12 03:35:02;;;;;;;9.13;2.90;;;;;;;;;;5049318;28;20094;-66
2023/12/12 03:37:28;;;;;;;8.75;3.50;;;;;;;;;;5049933;28;20092;-68
2023/12/12 03:39:53;;;;;;;6.60;3.33;;;;;;;;;;5050206;28;20116;-67
2023/12/12 03:42:18;;;;;;;11.10;2.85;;;;;;;;;;5047222;28;20045;-66
2023/12/12 03:44:44;;;;;;;11.55;2.70;;;;;;;;;;5050318;28;20115;-67
2023/12/12 03:47:09;;;;;;;14.20;1.90;;;;;;;;;;5048249;28;20056;-67
2023/12/12 03:49:34;;;;;;;6.57;1.17;;;;;;;;;;5049769;28;20131;-67
2023/12/12 03:52:00;;;;;;;9.25;1.70;;;;;;;;;;5049254;28;20040;-67
2023/12/12 03:54:25;;;;;;;9.32;1.60;;;;;;;;;;5049698;28;20047;-66
2023/12/12 03:56:51;;;;;;;36.45;2.38;;;;;;;;;;5049477;28;20357;-67
2023/12/12 03:59:16;;;;;;;43.90;2.38;;;;;;;;;;5049998;28;20381;-66
2023/12/12 04:01:47;;;;;;;46.50;2.42;;;;;;;;;;5045859;28;20212;-66
2023/12/12 04:04:12;;;;;;;32.58;1.70;;;;;;;;;;5043777;28;20090;-66
2023/12/12 04:06:47;;;;;;;36.80;1.92;;;;;;;;;;5049707;28;20033;-66
2023/12/12 04:09:12;;;;;;;94.40;2.92;;;;;;;;;;5049807;28;20116;-67
2023/12/12 04:11:38;;;;;;;6.97;1.40;;;;;;;;;;5048957;28;20120;-66
2023/12/12 04:14:03;;;;;;;37.47;1.92;;;;;;;;;;5049810;28;20472;-66
2023/12/12 04:16:28;;;;;;;55.40;2.33;;;;;;;;;;5049650;28;20171;-67
2023/12/12 04:18:54;;;;;;;46.85;2.00;;;;;;;;;;5049220;28;20040;-67
2023/12/12 04:21:19;;;;;;;19.27;1.50;;;;;;;;;;5049469;28;20032;-66
2023/12/12 04:23:44;;;;;;;12.48;1.52;;;;;;;;;;5049408;28;20033;-66
2023/12/12 04:26:10;;;;;;;7.63;1.80;;;;;;;;;;5039426;28;20037;-67
2023/12/12 04:28:36;;;;;;;13.52;1.75;;;;;;;;;;5048313;28;20037;-66
2023/12/12 04:31:01;;;;;;;5.30;1.55;;;;;;;;;;5048876;28;20080;-66
2023/12/12 04:33:27;;;;;;;8.13;1.38;;;;;;;;;;5042522;28;20048;-67
2023/12/12 04:35:53;;;;;;;8.88;1.80;;;;;;;;;;5049496;28;20040;-67
2023/12/12 04:38:18;;;;;;;11.63;1.67;;;;;;;;;;5039479;28;20049;-66
2023/12/12 04:40:43;;;;;;;5.82;1.25;;;;;;;;;;5049332;28;20369;-66
2023/12/12 04:43:09;;;;;;;44.15;1.92;;;;;;;;;;5045315;28;20524;-67
2023/12/12 04:45:34;;;;;;;8.00;1.15;;;;;;;;;;5049574;28;20480;-66
2023/12/12 04:47:59;;;;;;;12.63;1.50;;;;;;;;;;5042279;28;20033;-66
2023/12/12 04:50:25;;;;;;;89.50;3.35;;;;;;;;;;5049586;28;20041;-66
2023/12/12 04:52:51;;;;;;;20.90;1.25;;;;;;;;;;5049367;28;20036;-67
2023/12/12 04:55:16;;;;;;;51.10;2.00;;;;;;;;;;5048876;28;20123;-66
2023/12/12 04:57:43;;;;;;;7.43;1.08;;;;;;;;;;5048696;28;20106;-66
2023/12/12 05:00:13;;;;;;;6.45;0.88;;;;;;;;;;5049589;28;20064;-67
2023/12/12 05:02:39;;;;;;;27.52;1.48;;;;;;;;;;5046488;28;20530;-67
2023/12/12 05:05:05;;;;;;;21.63;1.33;;;;;;;;;;5051017;28;20036;-66
2023/12/12 05:07:30;;;;;;;29.17;1.50;;;;;;;;;;5051339;28;20041;-67
2023/12/12 05:09:56;;;;;;;6.18;0.90;;;;;;;;;;5052473;28;20098;-66
2023/12/12 05:12:21;;;;;;;23.65;1.20;;;;;;;;;;5050630;28;20037;-66
2023/12/12 05:14:47;;;;;;;12.07;1.05;;;;;;;;;;5052471;28;20441;-66
2023/12/12 05:17:12;;;;;;;3.55;0.88;;;;;;;;;;5047616;28;20035;-67
2023/12/12 05:19:37;;;;;;;13.98;1.20;;;;;;;;;;5052444;28;20140;-66
2023/12/12 05:22:03;;;;;;;13.82;1.13;;;;;;;;;;5052228;28;20037;-66
2023/12/12 05:24:28;;;;;;;22.98;1.30;;;;;;;;;;5052128;28;20029;-67
2023/12/12 05:26:54;;;;;;;17.80;1.02;;;;;;;;;;5049408;28;20396;-67
2023/12/12 05:29:19;;;;;;;16.45;1.27;;;;;;;;;;5052283;28;20041;-66
2023/12/12 05:31:45;;;;;;;57.17;3.08;;;;;;;;;;5051922;28;20472;-67
2023/12/12 05:34:10;;;;;;;52.22;2.50;;;;;;;;;;5051260;28;20105;-66
2023/12/12 05:36:35;;;;;;;38.03;1.60;;;;;;;;;;5052204;28;20397;-66
2023/12/12 05:39:01;;;;;;;16.45;0.98;;;;;;;;;;5051960;28;20430;-66
2023/12/12 05:41:27;;;;;;;35.55;1.50;;;;;;;;;;5033923;28;20036;-66
2023/12/12 05:43:52;;;;;;;11.48;1.15;;;;;;;;;;5050905;28;20536;-66
2023/12/12 05:46:18;;;;;;;5.38;0.80;;;;;;;;;;5051940;28;20029;-66
2023/12/12 05:48:43;;;;;;;1.33;0.60;;;;;;;;;;5051862;28;20420;-67
2023/12/12 05:51:08;;;;;;;16.88;1.17;;;;;;;;;;5051678;28;20382;-67
2023/12/12 05:53:34;;;;;;;50.90;1.92;;;;;;;;;;5050631;28;20029;-66
2023/12/12 05:55:59;;;;;;;43.00;2.20;;;;;;;;;;5049927;28;20045;-67
2023/12/12 05:58:25;;;;;;;68.25;1.95;;;;;;;;;;5048467;28;20044;-66
2023/12/12 06:00:51;;;;;;;55.42;1.70;;;;;;;;;;5051704;28;20025;-67
2023/12/12 06:03:17;;;;;;;88.28;3.28;;;;;;;;;;5051306;28;20043;-66
2023/12/12 06:05:43;;;;;;;82.82;2.28;;;;;;;;;;5051973;28;20051;-66
2023/12/12 06:08:08;;;;;;;51.92;1.92;;;;;;;;;;5042866;28;20048;-66
2023/12/12 06:10:33;;;;;;;50.25;1.67;;;;;;;;;;5051383;28;20045;-66
2023/12/12 06:12:59;;;;;;;34.47;1.23;;;;;;;;;;5042496;28;20611;-66
2023/12/12 06:15:24;;;;;;;22.20;0.93;;;;;;;;;;5051402;28;20459;-67
2023/12/12 06:17:49;;;;;;;22.55;1.08;;;;;;;;;;5051007;28;20044;-67
2023/12/12 06:20:15;;;;;;;37.58;1.23;;;;;;;;;;5051528;28;20079;-66
2023/12/12 06:22:40;;;;;;;16.10;0.85;;;;;;;;;;5051398;28;20393;-66
2023/12/12 06:25:06;;;;;;;2.83;0.70;;;;;;;;;;5051022;28;20051;-66
2023/12/12 06:27:32;;;;;;;32.70;1.13;;;;;;;;;;5051032;28;20029;-66
2023/12/12 06:29:57;;;;;;;65.18;2.13;;;;;;;;;;5051483;28;20052;-67
2023/12/12 06:32:23;;;;;;;8.82;1.33;;;;;;;;;;5048852;28;20104;-66
2023/12/12 06:34:48;;;;;;;14.90;4.28;;;;;;;;;;5051397;28;20037;-66
2023/12/12 06:37:14;;;;;;;68.03;5.05;;;;;;;;;;5048959;28;20125;-67
2023/12/12 06:39:40;;;;;;;112.85;8.63;;;;;;;;;;5051137;28;20044;-66
2023/12/12 06:42:05;;;;;;;71.97;2.25;;;;;;;;;;5049675;28;20094;-66
2023/12/12 06:44:30;;;;;;;16.63;3.33;;;;;;;;;;5051268;28;20116;-66
2023/12/12 06:46:56;;;;;;;22.27;4.97;;;;;;;;;;5048312;28;20052;-67
2023/12/12 06:49:21;;;;;;;18.48;2.65;;;;;;;;;;5045716;28;20047;-66
2023/12/12 06:51:47;;;;;;;72.85;3.53;;;;;;;;;;5043441;28;20481;-67
2023/12/12 06:54:12;;;;;;;33.88;1.80;;;;;;;;;;5045476;28;20074;-67
2023/12/12 06:56:37;;;;;;;21.55;1.98;;;;;;;;;;5050108;28;20094;-66
2023/12/12 06:59:05;;;;;;;4.05;1.05;;;;;;;;;;5050749;28;20534;-66
2023/12/12 07:01:30;;;;;;;5.78;1.13;;;;;;;;;;5049189;28;20064;-66
2023/12/12 07:03:57;;;;;;;5.22;1.20;;;;;;;;;;5050726;28;20503;-67
2023/12/12 07:06:23;;;;;;;3.72;1.40;;;;;;;;;;5050231;28;20112;-66
2023/12/12 07:08:48;;;;;;;4.40;1.27;;;;;;;;;;5050312;28;20116;-68
2023/12/12 07:11:15;;;;;;;20.60;2.58;;;;;;;;;;5044798;28;21487;-68
2023/12/12 07:13:40;;;;;;;15.20;1.90;;;;;;;;;;5049386;28;20079;-68
2023/12/12 07:16:06;;;;;;;9.63;1.35;;;;;;;;;;5050118;28;20069;-68
2023/12/12 07:18:32;;;;;;;11.80;1.63;;;;;;;;;;5050295;28;20045;-68
2023/12/12 07:20:58;;;;;;;5.13;1.20;;;;;;;;;;5050353;28;20119;-67
2023/12/12 07:23:23;;;;;;;22.50;1.10;;;;;;;;;;5048395;28;20120;-68
2023/12/12 07:25:48;;;;;;;8.20;0.82;;;;;;;;;;5049238;28;20159;-67
2023/12/12 07:28:14;;;;;;;7.10;1.13;;;;;;;;;;5049827;28;20087;-68
2023/12/12 07:30:39;;;;;;;4.05;0.80;;;;;;;;;;5049691;28;20055;-67
2023/12/12 07:33:04;;;;;;;8.23;1.15;;;;;;;;;;5046814;28;20116;-68
2023/12/12 07:35:30;;;;;;;6.57;0.90;;;;;;;;;;5049056;28;20637;-67
2023/12/12 07:37:55;;;;;;;13.73;1.10;;;;;;;;;;5050068;28;20040;-67
2023/12/12 07:40:20;;;;;;;4.88;1.05;;;;;;;;;;5050022;28;20102;-68
2023/12/12 07:42:46;;;;;;;4.03;1.00;;;;;;;;;;5047965;28;20032;-67
2023/12/12 07:45:11;;;;;;;6.10;0.90;;;;;;;;;;5039413;28;20044;-68
2023/12/12 07:47:37;;;;;;;4.63;0.85;;;;;;;;;;5072398;28;20040;-68
2023/12/12 07:50:05;;;;;;;8.65;1.00;;;;;;;;;;5049586;28;20037;-68
2023/12/12 07:52:33;;;;;;;7.25;1.15;;;;;;;;;;5049707;28;20045;-68
2023/12/12 07:54:58;;;;;;;8.10;1.10;;;;;;;;;;5050008;28;20037;-68
2023/12/12 07:57:24;;;;;;;5.15;1.30;;;;;;;;;;5049685;28;20269;-68
2023/12/12 07:59:50;;;;;;;6.97;1.02;;;;;;;;;;5049447;28;20041;-68
2023/12/12 08:02:15;;;;;;;4.50;0.93;;;;;;;;;;5048378;28;20033;-68
2023/12/12 08:04:41;;;;;;;6.72;1.15;;;;;;;;;;5050093;28;20068;-68
2023/12/12 08:07:06;;;;;;;4.43;1.02;;;;;;;;;;5049581;28;20033;-68
2023/12/12 08:09:32;;;;;;;4.68;1.10;;;;;;;;;;5047106;28;20128;-69
2023/12/12 08:11:57;;;;;;;8.70;1.00;;;;;;;;;;5036087;28;20063;-67
2023/12/12 08:14:22;;;;;;;5.30;0.85;;;;;;;;;;5048532;28;20048;-68
2023/12/12 08:16:48;;;;;;;5.45;1.05;;;;;;;;;;5049098;28;20141;-68
2023/12/12 08:19:14;;;;;;;19.83;2.42;;;;;;;;;;5048748;28;20036;-68
2023/12/12 08:21:40;;;;;;;15.55;3.22;;;;;;;;;;5030594;28;20041;-67
2023/12/12 08:24:06;;;;;;;23.45;2.90;;;;;;;;;;5046926;28;20037;-68
2023/12/12 08:26:39;;;;;;;17.05;2.30;;;;;;;;;;5048336;28;20408;-68
2023/12/12 08:29:05;;;;;;;10.38;1.67;;;;;;;;;;5047683;28;20068;-68
2023/12/12 08:31:30;;;;;;;25.40;3.55;;;;;;;;;;5048956;28;20076;-68
2023/12/12 08:33:55;;;;;;;18.95;2.50;;;;;;;;;;5048997;28;20029;-68
2023/12/12 08:36:21;;;;;;;30.48;4.40;;;;;;;;;;5048463;28;20032;-68
2023/12/12 08:38:50;;;;;;;14.43;2.13;;;;;;;;;;5045670;28;20032;-68
2023/12/12 08:41:15;;;;;;;42.88;4.72;;;;;;;;;;5052320;28;20067;-68
2023/12/12 08:43:41;;;;;;;28.17;4.32;;;;;;;;;;5052061;28;20044;-68
2023/12/12 08:46:06;;;;;;;37.30;6.13;;;;;;;;;;5044517;28;20064;-68
2023/12/12 08:48:32;;;;;;;37.95;6.70;;;;;;;;;;5049647;28;20037;-67
2023/12/12 08:50:57;;;;;;;51.72;7.28;;;;;;;;;;5063413;28;20038;-68
2023/12/12 08:53:26;;;;;;;46.30;6.53;;;;;;;;;;5064825;28;20129;-68
2023/12/12 08:55:53;;;;;;;33.90;8.18;;;;;;;;;;5060653;28;20029;-68
2023/12/12 08:58:19;;;;;;;34.90;7.53;;;;;;;;;;5058208;28;20044;-67
2023/12/12 09:00:44;;;;;;;30.70;5.85;;;;;;;;;;5053074;28;20041;-69
2023/12/12 09:03:09;;;;;;;37.60;9.13;;;;;;;;;;5052932;28;20037;-68
2023/12/12 09:05:36;;;;;;;34.55;7.15;;;;;;;;;;5052918;28;20412;-68
2023/12/12 09:08:02;;;;;;;46.00;7.55;;;;;;;;;;5044562;28;20037;-68
2023/12/12 09:10:28;;;;;;;36.70;10.15;;;;;;;;;;5051128;28;20104;-68
2023/12/12 09:12:53;;;;;;;44.30;9.30;;;;;;;;;;5050307;28;20539;-68
2023/12/12 09:15:19;;;;;;;20.80;3.10;;;;;;;;;;5048088;28;20480;-68
2023/12/12 09:17:44;;;;;;;20.40;3.00;;;;;;;;;;5051840;28;20471;-68
2023/12/12 09:20:12;;;;;;;17.58;4.63;;;;;;;;;;5051997;28;20045;-68
2023/12/12 09:22:37;;;;;;;33.72;4.55;;;;;;;;;;5049538;28;20056;-68
2023/12/12 09:25:02;;;;;;;32.55;6.93;;;;;;;;;;5052588;28;20055;-68
2023/12/12 09:27:28;;;;;;;27.30;4.70;;;;;;;;;;5052316;28;20404;-68
2023/12/12 09:29:53;;;;;;;20.85;3.20;;;;;;;;;;5051068;28;20530;-68
2023/12/12 09:32:18;;;;;;;9.50;2.58;;;;;;;;;;5052680;28;20078;-68
2023/12/12 09:34:44;;;;;;;16.88;3.53;;;;;;;;;;5052208;28;20118;-68
2023/12/12 09:37:09;;;;;;;38.65;4.70;;;;;;;;;;5052294;28;20037;-67
2023/12/12 09:39:34;;;;;;;37.63;3.53;;;;;;;;;;5052378;28;20086;-67
2023/12/12 09:42:00;;;;;;;37.80;3.58;;;;;;;;;;5052079;28;20099;-68
2023/12/12 09:44:29;;;;;;;39.60;3.50;;;;;;;;;;5051032;28;20041;-68
2023/12/12 09:46:55;;;;;;;41.17;3.70;;;;;;;;;;5052092;28;20087;-68
2023/12/12 09:49:21;;;;;;;41.03;4.65;;;;;;;;;;5051354;28;20037;-68
2023/12/12 09:51:48;;;;;;;36.55;4.20;;;;;;;;;;5052046;28;20465;-68
2023/12/12 09:54:13;;;;;;;35.22;4.25;;;;;;;;;;5051991;28;20029;-67
2023/12/12 09:56:40;;;;;;;40.22;5.05;;;;;;;;;;5051903;28;20044;-67
2023/12/12 09:59:08;;;;;;;38.97;3.60;;;;;;;;;;5048234;28;20041;-67
2023/12/12 10:01:36;;;;;;;35.15;4.10;;;;;;;;;;5038401;28;20198;-69
2023/12/12 10:04:06;;;;;;;33.03;4.18;;;;;;;;;;5045033;28;20033;-68
2023/12/12 10:06:39;;;;;;;23.58;3.20;;;;;;;;;;5047320;28;20040;-68
2023/12/12 10:09:05;;;;;;;35.00;3.50;;;;;;;;;;5044769;28;20588;-68
2023/12/12 10:11:31;;;;;;;45.83;4.15;;;;;;;;;;5047872;28;20029;-68
2023/12/12 10:13:58;;;;;;;37.50;3.55;;;;;;;;;;5046845;28;20908;-67
2023/12/12 10:16:25;;;;;;;33.17;3.53;;;;;;;;;;5044832;28;20048;-68
2023/12/12 10:18:52;;;;;;;49.50;4.07;;;;;;;;;;5042931;28;20525;-68
2023/12/12 10:21:19;;;;;;;38.95;4.13;;;;;;;;;;5042517;28;20182;-67
2023/12/12 10:23:51;;;;;;;46.42;4.50;;;;;;;;;;5047735;28;20044;-68
2023/12/12 10:26:29;;;;;;;29.63;3.92;;;;;;;;;;5046011;28;20492;-69
2023/12/12 10:28:55;;;;;;;39.42;4.10;;;;;;;;;;5047891;28;20037;-69
2023/12/12 10:31:22;;;;;;;37.78;4.40;;;;;;;;;;5045713;28;20060;-68
2023/12/12 10:33:48;;;;;;;51.83;5.00;;;;;;;;;;5045694;28;20029;-67
2023/12/12 10:36:13;;;;;;;45.17;3.95;;;;;;;;;;5046243;28;20059;-68
2023/12/12 10:38:39;;;;;;;32.00;3.55;;;;;;;;;;5047178;28;20033;-68
2023/12/12 10:41:15;;;;;;;23.08;2.83;;;;;;;;;;5047342;28;20028;-69
2023/12/12 10:43:42;;;;;;;37.40;3.40;;;;;;;;;;5047648;28;20040;-67
2023/12/12 10:46:12;;;;;;;44.25;3.65;;;;;;;;;;5047260;28;20072;-68
2023/12/12 10:48:48;;;;;;;41.35;3.95;;;;;;;;;;5046909;28;20041;-67
2023/12/12 10:51:17;;;;;;;31.42;3.67;;;;;;;;;;5047100;28;20055;-68
2023/12/12 10:53:43;;;;;;;40.55;4.28;;;;;;;;;;5047179;28;20075;-68
2023/12/12 10:56:11;;;;;;;34.38;4.10;;;;;;;;;;5045613;28;20053;-68
2023/12/12 10:58:37;;;;;;;47.58;5.55;;;;;;;;;;5046310;28;20083;-68
2023/12/12 11:01:03;;;;;;;29.75;4.38;;;;;;;;;;5046185;28;20040;-68
2023/12/12 11:03:29;;;;;;;29.33;3.47;;;;;;;;;;5044745;28;20036;-68
2023/12/12 11:05:55;;;;;;;41.10;3.53;;;;;;;;;;5046000;28;20058;-68
2023/12/12 11:08:21;;;;;;;30.63;3.15;;;;;;;;;;5044884;28;20033;-69
2023/12/12 11:10:50;;;;;;;38.10;4.70;;;;;;;;;;5033794;28;20078;-69
2023/12/12 11:13:16;;;;;;;37.65;8.77;;;;;;;;;;5047435;28;20067;-69
2023/12/12 11:15:42;;;;;;;46.67;10.43;;;;;;;;;;5045707;28;20065;-68
2023/12/12 11:18:09;;;;;;;38.15;10.43;;;;;;;;;;5048165;28;20374;-68
2023/12/12 11:20:39;;;;;;;30.10;3.65;;;;;;;;;;5046472;28;20032;-68
2023/12/12 11:23:05;;;;;;;28.02;4.07;;;;;;;;;;5047898;28;20036;-69
2023/12/12 11:25:31;;;;;;;31.23;4.43;;;;;;;;;;5046697;28;20039;-68
2023/12/12 11:27:57;;;;;;;29.85;3.58;;;;;;;;;;5046691;28;20083;-67
2023/12/12 11:30:37;;;;;;;29.98;3.92;;;;;;;;;;5046130;28;20060;-68
2023/12/12 11:33:05;;;;;;;33.13;3.72;;;;;;;;;;5045636;28;20048;-68
2023/12/12 11:35:31;;;;;;;19.90;2.70;;;;;;;;;;5042772;28;20033;-68
2023/12/12 11:38:27;;;;;;;26.58;3.30;;;;;;;;;;5046962;28;20029;-68
2023/12/12 11:41:15;;;;;;;26.35;3.50;;;;;;;;;;5047342;28;20632;-68
2023/12/12 11:43:41;;;;;;;20.45;2.63;;;;;;;;;;5045106;28;20064;-67
2023/12/12 11:46:20;;;;;;;22.05;2.83;;;;;;;;;;5048238;28;20036;-68
2023/12/12 11:48:46;;;;;;;25.50;2.97;;;;;;;;;;5048147;28;20358;-67
2023/12/12 11:51:33;;;;;;;15.43;2.65;;;;;;;;;;5049471;28;20067;-68
2023/12/12 11:54:03;;;;;;;22.42;3.42;;;;;;;;;;5048981;28;20028;-67
2023/12/12 11:56:28;;;;;;;23.88;3.97;;;;;;;;;;5050817;28;20039;-68
2023/12/12 11:58:54;;;;;;;15.05;2.60;;;;;;;;;;5049451;28;20493;-68
2023/12/12 12:01:21;;;;;;;26.05;2.10;;;;;;;;;;5047959;28;20517;-67
2023/12/12 12:03:47;;;;;;;22.13;4.60;;;;;;;;;;5049540;28;20358;-68
2023/12/12 12:06:12;;;;;;;18.35;4.22;;;;;;;;;;5049705;28;20079;-68
2023/12/12 12:08:38;;;;;;;17.05;2.35;;;;;;;;;;5049510;28;20025;-67
2023/12/12 12:11:03;;;;;;;16.98;3.72;;;;;;;;;;5050567;28;20079;-68
2023/12/12 12:13:41;;;;;;;17.55;3.42;;;;;;;;;;5052081;28;20055;-68
2023/12/12 12:16:08;;;;;;;27.00;2.47;;;;;;;;;;5052203;28;20045;-68
2023/12/12 12:18:33;;;;;;;19.05;3.10;;;;;;;;;;5053312;28;20040;-67
2023/12/12 12:20:59;;;;;;;22.58;2.75;;;;;;;;;;5053406;28;20033;-68
2023/12/12 12:23:25;;;;;;;19.98;2.60;;;;;;;;;;5052594;28;20103;-67
2023/12/12 12:25:50;;;;;;;14.35;2.30;;;;;;;;;;5051528;28;20037;-67
2023/12/12 12:28:16;;;;;;;15.93;2.42;;;;;;;;;;5050350;28;20487;-67
2023/12/12 12:30:47;;;;;;;12.90;2.20;;;;;;;;;;5052691;28;20115;-67
2023/12/12 12:33:13;;;;;;;16.20;1.85;;;;;;;;;;5051526;28;20033;-67
2023/12/12 12:35:50;;;;;;;13.57;2.15;;;;;;;;;;5051848;28;20033;-67
2023/12/12 12:38:31;;;;;;;22.45;3.05;;;;;;;;;;5051278;28;20036;-68
2023/12/12 12:40:56;;;;;;;17.63;2.50;;;;;;;;;;5052708;28;20510;-68
2023/12/12 12:43:24;;;;;;;16.83;2.75;;;;;;;;;;5051638;28;20032;-67
2023/12/12 12:45:51;;;;;;;18.42;3.17;;;;;;;;;;5051383;28;20520;-68
2023/12/12 12:48:17;;;;;;;15.60;4.35;;;;;;;;;;5051625;28;20083;-67
2023/12/12 12:50:44;;;;;;;15.68;5.55;;;;;;;;;;5051343;28;20033;-67
2023/12/12 12:53:10;;;;;;;8.32;1.10;;;;;;;;;;5051714;28;20056;-67
2023/12/12 12:55:42;;;;;;;13.57;2.33;;;;;;;;;;5051545;28;20616;-68
2023/12/12 12:58:09;;;;;;;4.63;1.15;;;;;;;;;;5052634;28;20036;-67
2023/12/12 13:00:34;;;;;;;8.68;1.20;;;;;;;;;;5052737;28;20057;-67
2023/12/12 13:02:59;;;;;;;11.77;1.30;;;;;;;;;;5053982;28;20060;-67
2023/12/12 13:05:26;;;;;;;5.10;1.10;;;;;;;;;;5051830;28;20040;-67
2023/12/12 13:07:53;;;;;;;4.53;1.30;;;;;;;;;;5051688;28;20651;-68
2023/12/12 13:10:18;;;;;;;5.82;0.85;;;;;;;;;;5044559;28;20030;-68
2023/12/12 13:12:44;;;;;;;5.60;0.88;;;;;;;;;;5052522;28;20556;-67
2023/12/12 13:15:10;;;;;;;9.63;1.20;;;;;;;;;;5051586;28;20041;-68
2023/12/12 13:17:35;;;;;;;2.75;0.70;;;;;;;;;;5049326;28;20036;-68
2023/12/12 13:20:08;;;;;;;5.07;0.80;;;;;;;;;;5048881;28;20111;-68
2023/12/12 13:22:37;;;;;;;7.63;0.93;;;;;;;;;;5050783;28;20421;-68
2023/12/12 13:25:02;;;;;;;4.32;0.80;;;;;;;;;;5048467;28;20120;-67
2023/12/12 13:27:28;;;;;;;3.38;0.88;;;;;;;;;;5050801;28;20644;-68
2023/12/12 13:29:53;;;;;;;10.73;1.10;;;;;;;;;;5048782;28;20038;-68
2023/12/12 13:32:19;;;;;;;4.45;1.20;;;;;;;;;;5049751;28;20033;-67
2023/12/12 13:34:49;;;;;;;8.48;1.20;;;;;;;;;;5050750;28;20086;-68
2023/12/12 13:37:15;;;;;;;7.30;1.45;;;;;;;;;;5055258;28;20039;-68
2023/12/12 13:39:40;;;;;;;2.22;0.60;;;;;;;;;;5051744;28;20037;-67
2023/12/12 13:42:06;;;;;;;4.75;1.13;;;;;;;;;;5044716;28;20033;-67
2023/12/12 13:44:32;;;;;;;11.43;1.70;;;;;;;;;;5051267;28;20112;-67
2023/12/12 13:46:57;;;;;;;6.13;1.10;;;;;;;;;;5045832;28;20515;-67
2023/12/12 13:49:23;;;;;;;6.78;0.93;;;;;;;;;;5048591;28;20037;-68
2023/12/12 13:51:48;;;;;;;5.63;0.80;;;;;;;;;;5043619;28;20033;-68
2023/12/12 13:54:13;;;;;;;11.68;0.98;;;;;;;;;;5048472;28;20037;-67
2023/12/12 13:56:39;;;;;;;2.08;0.80;;;;;;;;;;5050247;28;20037;-67
2023/12/12 13:59:04;;;;;;;5.05;0.75;;;;;;;;;;5049531;28;20762;-67
2023/12/12 14:01:30;;;;;;;7.18;1.00;;;;;;;;;;5038494;28;20045;-68
2023/12/12 14:03:55;;;;;;;8.00;1.08;;;;;;;;;;5045418;28;20024;-68
2023/12/12 14:06:20;;;;;;;3.63;0.90;;;;;;;;;;5042071;28;20063;-68
2023/12/12 14:08:46;;;;;;;7.30;0.88;;;;;;;;;;5046708;28;20408;-67
2023/12/12 14:11:12;;;;;;;8.98;1.63;;;;;;;;;;5048270;28;20028;-67
2023/12/12 14:13:37;;;;;;;4.88;1.60;;;;;;;;;;5029922;28;20052;-68
2023/12/12 14:16:03;;;;;;;3.42;0.82;;;;;;;;;;5047979;28;20048;-68
2023/12/12 14:18:28;;;;;;;10.35;0.98;;;;;;;;;;5048360;28;20033;-67
2023/12/12 14:20:53;;;;;;;10.10;1.27;;;;;;;;;;5053205;28;20041;-68
2023/12/12 14:23:19;;;;;;;6.35;0.95;;;;;;;;;;5047858;28;20043;-67
2023/12/12 14:25:44;;;;;;;7.03;1.10;;;;;;;;;;5048040;28;20033;-67
2023/12/12 14:28:11;;;;;;;6.38;0.90;;;;;;;;;;5046661;28;20036;-67